sensor_id;sensor_type;location;lat;lon;timestamp;pressure;altitude;pressure_sealevel;temperature;humidity
39301;BME280;25019;42.626;23.380;2022-12-18T00:02:15;95172.88;;;6.00;100.00
39301;BME280;25019;42.626;23.380;2022-12-18T00:04:40;95181.75;;;5.93;100.00
39301;BME280;25019;42.626;23.380;2022-12-18T00:07:06;95113.31;;;5.37;100.00
39301;BME280;25019;42.626;23.380;2022-12-18T00:09:32;95182.53;;;5.73;100.00
39301;BME280;25019;42.626;23.380;2022-12-18T00:11:57;95186.56;;;5.69;100.00
39301;BME280;25019;42.626;23.380;2022-12-18T00:14:23;95110.38;;;5.12;100.00
39301;BME280;25019;42.626;23.380;2022-12-18T00:16:48;95196.25;;;5.55;100.00
39301;BME280;25019;42.626;23.380;2022-12-18T00:19:14;95193.00;;;5.53;100.00
39301;BME280;25019;42.626;23.380;2022-12-18T00:21:41;95203.38;;;5.54;100.00
39301;BME280;25019;42.626;23.380;2022-12-18T00:24:08;95201.91;;;5.45;100.00
39301;BME280;25019;42.626;23.380;2022-12-18T00:26:36;95178.09;;;5.25;100.00
39301;BME280;25019;42.626;23.380;2022-12-18T00:29:09;95199.00;;;5.33;100.00
39301;BME280;25019;42.626;23.380;2022-12-18T00:31:37;95197.78;;;5.29;100.00
39301;BME280;25019;42.626;23.380;2022-12-18T00:34:03;95209.91;;;5.23;100.00
39301;BME280;25019;42.626;23.380;2022-12-18T00:36:31;95215.78;;;5.25;100.00
39301;BME280;25019;42.626;23.380;2022-12-18T00:38:58;95141.84;;;4.85;100.00
39301;BME280;25019;42.626;23.380;2022-12-18T00:41:25;95146.31;;;4.85;100.00
39301;BME280;25019;42.626;23.380;2022-12-18T00:44:12;95221.06;;;5.25;100.00
39301;BME280;25019;42.626;23.380;2022-12-18T00:46:38;95216.78;;;5.24;100.00
39301;BME280;25019;42.626;23.380;2022-12-18T00:49:04;95217.97;;;5.22;100.00
39301;BME280;25019;42.626;23.380;2022-12-18T00:51:29;95227.09;;;5.19;100.00
39301;BME280;25019;42.626;23.380;2022-12-18T00:53:55;95206.53;;;5.01;100.00
39301;BME280;25019;42.626;23.380;2022-12-18T00:56:20;95216.69;;;5.04;100.00
39301;BME280;25019;42.626;23.380;2022-12-18T00:58:46;95231.63;;;5.04;100.00
39301;BME280;25019;42.626;23.380;2022-12-18T01:01:12;95228.44;;;5.08;100.00
39301;BME280;25019;42.626;23.380;2022-12-18T01:03:37;95225.63;;;5.10;100.00
39301;BME280;25019;42.626;23.380;2022-12-18T01:06:08;95227.00;;;5.06;100.00
39301;BME280;25019;42.626;23.380;2022-12-18T01:08:35;95236.31;;;5.02;100.00
39301;BME280;25019;42.626;23.380;2022-12-18T01:11:07;95234.50;;;5.09;100.00
39301;BME280;25019;42.626;23.380;2022-12-18T01:13:33;95239.97;;;5.01;100.00
39301;BME280;25019;42.626;23.380;2022-12-18T01:15:59;95182.97;;;4.58;100.00
39301;BME280;25019;42.626;23.380;2022-12-18T01:18:24;95235.41;;;4.88;100.00
39301;BME280;25019;42.626;23.380;2022-12-18T01:20:50;95244.53;;;4.92;100.00
39301;BME280;25019;42.626;23.380;2022-12-18T01:23:16;95243.53;;;4.93;100.00
39301;BME280;25019;42.626;23.380;2022-12-18T01:25:41;95241.22;;;4.83;100.00
39301;BME280;25019;42.626;23.380;2022-12-18T01:28:09;95260.03;;;4.80;100.00
39301;BME280;25019;42.626;23.380;2022-12-18T01:30:35;95247.66;;;4.74;100.00
39301;BME280;25019;42.626;23.380;2022-12-18T01:33:00;95254.69;;;4.67;100.00
39301;BME280;25019;42.626;23.380;2022-12-18T01:35:26;95253.59;;;4.61;100.00
39301;BME280;25019;42.626;23.380;2022-12-18T01:37:55;95232.41;;;4.41;100.00
39301;BME280;25019;42.626;23.380;2022-12-18T01:40:21;95251.63;;;4.41;100.00
39301;BME280;25019;42.626;23.380;2022-12-18T01:42:53;95264.81;;;4.48;100.00
39301;BME280;25019;42.626;23.380;2022-12-18T01:45:25;95264.66;;;4.49;100.00
39301;BME280;25019;42.626;23.380;2022-12-18T01:48:02;95274.53;;;4.47;100.00
39301;BME280;25019;42.626;23.380;2022-12-18T01:53:05;95203.09;;;4.00;100.00
39301;BME280;25019;42.626;23.380;2022-12-18T01:55:36;95269.41;;;4.39;100.00
39301;BME280;25019;42.626;23.380;2022-12-18T01:58:04;95272.84;;;4.40;100.00
39301;BME280;25019;42.626;23.380;2022-12-18T02:00:30;95279.28;;;4.37;100.00
39301;BME280;25019;42.626;23.380;2022-12-18T02:02:55;95224.31;;;3.99;100.00
39301;BME280;25019;42.626;23.380;2022-12-18T02:05:29;95230.13;;;3.94;100.00
39301;BME280;25019;42.626;23.380;2022-12-18T02:08:20;95282.69;;;4.31;100.00
39301;BME280;25019;42.626;23.380;2022-12-18T02:11:01;95290.59;;;4.31;100.00
39301;BME280;25019;42.626;23.380;2022-12-18T02:16:49;95299.88;;;4.12;100.00
39301;BME280;25019;42.626;23.380;2022-12-18T02:22:21;95295.28;;;3.99;100.00
39301;BME280;25019;42.626;23.380;2022-12-18T02:27:15;95290.56;;;3.94;100.00
39301;BME280;25019;42.626;23.380;2022-12-18T02:29:46;95294.28;;;4.00;100.00
39301;BME280;25019;42.626;23.380;2022-12-18T02:32:19;95302.34;;;3.98;100.00
39301;BME280;25019;42.626;23.380;2022-12-18T02:34:46;95244.44;;;3.55;100.00
39301;BME280;25019;42.626;23.380;2022-12-18T02:37:17;95292.22;;;3.80;100.00
39301;BME280;25019;42.626;23.380;2022-12-18T02:39:44;95302.56;;;3.82;100.00
39301;BME280;25019;42.626;23.380;2022-12-18T02:42:13;95305.72;;;3.77;100.00
39301;BME280;25019;42.626;23.380;2022-12-18T02:44:44;95300.88;;;3.74;100.00
39301;BME280;25019;42.626;23.380;2022-12-18T02:47:12;95258.84;;;3.44;100.00
39301;BME280;25019;42.626;23.380;2022-12-18T02:58:17;95330.28;;;3.84;100.00
39301;BME280;25019;42.626;23.380;2022-12-18T03:01:16;95294.22;;;3.63;100.00
39301;BME280;25019;42.626;23.380;2022-12-18T03:03:52;95212.31;;;3.08;100.00
39301;BME280;25019;42.626;23.380;2022-12-18T03:06:26;95322.06;;;3.72;100.00
39301;BME280;25019;42.626;23.380;2022-12-18T03:08:58;95335.09;;;3.66;100.00
39301;BME280;25019;42.626;23.380;2022-12-18T03:11:28;95335.47;;;3.63;100.00
39301;BME280;25019;42.626;23.380;2022-12-18T03:14:16;95334.28;;;3.50;100.00
39301;BME280;25019;42.626;23.380;2022-12-18T03:16:49;95256.94;;;2.93;100.00
39301;BME280;25019;42.626;23.380;2022-12-18T03:19:21;95337.72;;;3.36;100.00
39301;BME280;25019;42.626;23.380;2022-12-18T03:21:54;95341.06;;;3.29;100.00
39301;BME280;25019;42.626;23.380;2022-12-18T03:24:23;95340.91;;;3.31;100.00
39301;BME280;25019;42.626;23.380;2022-12-18T03:26:55;95332.53;;;3.27;100.00
39301;BME280;25019;42.626;23.380;2022-12-18T03:29:45;95246.38;;;2.63;100.00
39301;BME280;25019;42.626;23.380;2022-12-18T03:32:30;95362.97;;;3.37;100.00
39301;BME280;25019;42.626;23.380;2022-12-18T03:35:02;95362.00;;;3.38;100.00
39301;BME280;25019;42.626;23.380;2022-12-18T03:37:32;95350.91;;;3.27;100.00
39301;BME280;25019;42.626;23.380;2022-12-18T03:39:58;95365.63;;;3.37;100.00
39301;BME280;25019;42.626;23.380;2022-12-18T03:45:20;95371.84;;;3.36;100.00
39301;BME280;25019;42.626;23.380;2022-12-18T03:51:12;95392.34;;;3.55;100.00
39301;BME280;25019;42.626;23.380;2022-12-18T03:56:25;95401.56;;;3.51;100.00
39301;BME280;25019;42.626;23.380;2022-12-18T03:58:53;95399.13;;;3.50;100.00
39301;BME280;25019;42.626;23.380;2022-12-18T04:01:28;95385.63;;;3.38;100.00
39301;BME280;25019;42.626;23.380;2022-12-18T04:03:58;95380.09;;;3.33;100.00
39301;BME280;25019;42.626;23.380;2022-12-18T04:06:25;95384.34;;;3.34;100.00
39301;BME280;25019;42.626;23.380;2022-12-18T04:08:52;95398.66;;;3.31;100.00
39301;BME280;25019;42.626;23.380;2022-12-18T04:11:20;95391.66;;;3.23;100.00
39301;BME280;25019;42.626;23.380;2022-12-18T04:13:47;95396.44;;;3.20;100.00
39301;BME280;25019;42.626;23.380;2022-12-18T04:16:20;95333.97;;;2.77;100.00
39301;BME280;25019;42.626;23.380;2022-12-18T04:18:50;95405.78;;;3.22;100.00
39301;BME280;25019;42.626;23.380;2022-12-18T04:21:16;95396.63;;;3.18;100.00
39301;BME280;25019;42.626;23.380;2022-12-18T04:23:42;95415.91;;;3.25;100.00
39301;BME280;25019;42.626;23.380;2022-12-18T04:26:08;95418.00;;;3.15;100.00
39301;BME280;25019;42.626;23.380;2022-12-18T04:28:52;95401.13;;;3.09;100.00
39301;BME280;25019;42.626;23.380;2022-12-18T04:31:17;95412.38;;;3.18;100.00
39301;BME280;25019;42.626;23.380;2022-12-18T04:33:43;95421.91;;;3.19;100.00
39301;BME280;25019;42.626;23.380;2022-12-18T04:36:09;95432.56;;;3.18;100.00
39301;BME280;25019;42.626;23.380;2022-12-18T04:38:34;95430.94;;;3.17;100.00
39301;BME280;25019;42.626;23.380;2022-12-18T04:41:05;95434.53;;;3.15;100.00
39301;BME280;25019;42.626;23.380;2022-12-18T04:43:32;95369.13;;;2.67;100.00
39301;BME280;25019;42.626;23.380;2022-12-18T04:46:16;95436.22;;;3.08;100.00
39301;BME280;25019;42.626;23.380;2022-12-18T04:48:42;95438.59;;;3.03;100.00
39301;BME280;25019;42.626;23.380;2022-12-18T04:51:07;95448.44;;;3.01;100.00
39301;BME280;25019;42.626;23.380;2022-12-18T04:53:33;95296.59;;;2.05;100.00
39301;BME280;25019;42.626;23.380;2022-12-18T04:56:07;95318.53;;;2.12;100.00
39301;BME280;25019;42.626;23.380;2022-12-18T04:58:33;95454.34;;;3.03;100.00
39301;BME280;25019;42.626;23.380;2022-12-18T05:00:59;95453.16;;;3.06;100.00
39301;BME280;25019;42.626;23.380;2022-12-18T05:03:24;95462.38;;;3.02;100.00
39301;BME280;25019;42.626;23.380;2022-12-18T05:05:50;95395.13;;;2.54;100.00
39301;BME280;25019;42.626;23.380;2022-12-18T05:08:17;95416.56;;;2.58;100.00
39301;BME280;25019;42.626;23.380;2022-12-18T05:10:42;95468.84;;;2.91;100.00
39301;BME280;25019;42.626;23.380;2022-12-18T05:13:08;95476.56;;;2.92;100.00
39301;BME280;25019;42.626;23.380;2022-12-18T05:15:33;95488.16;;;2.98;100.00
39301;BME280;25019;42.626;23.380;2022-12-18T05:18:00;95490.94;;;2.96;100.00
39301;BME280;25019;42.626;23.380;2022-12-18T05:20:26;95489.94;;;2.97;100.00
39301;BME280;25019;42.626;23.380;2022-12-18T05:22:53;95491.94;;;2.95;100.00
39301;BME280;25019;42.626;23.380;2022-12-18T05:25:19;95504.38;;;3.02;100.00
39301;BME280;25019;42.626;23.380;2022-12-18T05:27:45;95513.56;;;2.97;100.00
39301;BME280;25019;42.626;23.380;2022-12-18T05:30:12;95504.88;;;2.97;100.00
39301;BME280;25019;42.626;23.380;2022-12-18T05:32:37;95518.00;;;2.97;100.00
39301;BME280;25019;42.626;23.380;2022-12-18T05:35:06;95509.31;;;2.96;100.00
39301;BME280;25019;42.626;23.380;2022-12-18T05:37:32;95441.50;;;2.53;100.00
39301;BME280;25019;42.626;23.380;2022-12-18T05:39:57;95525.41;;;2.93;100.00
39301;BME280;25019;42.626;23.380;2022-12-18T05:42:23;95514.75;;;2.95;100.00
39301;BME280;25019;42.626;23.380;2022-12-18T05:44:49;95514.09;;;2.93;100.00
39301;BME280;25019;42.626;23.380;2022-12-18T05:47:14;95517.25;;;2.88;100.00
39301;BME280;25019;42.626;23.380;2022-12-18T05:49:40;95512.81;;;2.89;100.00
39301;BME280;25019;42.626;23.380;2022-12-18T05:52:05;95523.06;;;2.98;100.00
39301;BME280;25019;42.626;23.380;2022-12-18T05:54:31;95525.31;;;3.10;100.00
39301;BME280;25019;42.626;23.380;2022-12-18T05:56:57;95513.34;;;3.07;100.00
39301;BME280;25019;42.626;23.380;2022-12-18T05:59:23;95540.75;;;3.05;100.00
39301;BME280;25019;42.626;23.380;2022-12-18T06:01:49;95533.06;;;3.03;100.00
39301;BME280;25019;42.626;23.380;2022-12-18T06:04:15;95530.31;;;2.96;100.00
39301;BME280;25019;42.626;23.380;2022-12-18T06:06:40;95532.78;;;2.98;100.00
39301;BME280;25019;42.626;23.380;2022-12-18T06:09:06;95527.22;;;2.93;100.00
39301;BME280;25019;42.626;23.380;2022-12-18T06:11:34;95547.00;;;3.04;100.00
39301;BME280;25019;42.626;23.380;2022-12-18T06:14:00;95520.03;;;2.87;100.00
39301;BME280;25019;42.626;23.380;2022-12-18T06:16:27;95550.63;;;3.03;100.00
39301;BME280;25019;42.626;23.380;2022-12-18T06:18:56;95547.66;;;3.06;100.00
39301;BME280;25019;42.626;23.380;2022-12-18T06:21:22;95529.66;;;2.94;100.00
39301;BME280;25019;42.626;23.380;2022-12-18T06:23:47;95499.25;;;2.77;100.00
39301;BME280;25019;42.626;23.380;2022-12-18T06:26:13;95561.75;;;3.05;100.00
39301;BME280;25019;42.626;23.380;2022-12-18T06:28:39;95559.59;;;3.08;100.00
39301;BME280;25019;42.626;23.380;2022-12-18T06:31:06;95515.97;;;2.76;100.00
39301;BME280;25019;42.626;23.380;2022-12-18T06:33:32;95561.59;;;3.06;100.00
39301;BME280;25019;42.626;23.380;2022-12-18T06:36:06;95487.44;;;2.49;100.00
39301;BME280;25019;42.626;23.380;2022-12-18T06:38:36;95575.00;;;3.11;100.00
39301;BME280;25019;42.626;23.380;2022-12-18T06:41:15;95567.13;;;3.11;100.00
39301;BME280;25019;42.626;23.380;2022-12-18T06:43:42;95579.78;;;3.08;100.00
39301;BME280;25019;42.626;23.380;2022-12-18T06:46:08;95573.09;;;3.05;100.00
39301;BME280;25019;42.626;23.380;2022-12-18T06:48:34;95575.91;;;2.95;100.00
39301;BME280;25019;42.626;23.380;2022-12-18T06:50:59;95579.81;;;2.99;100.00
39301;BME280;25019;42.626;23.380;2022-12-18T06:53:25;95592.63;;;2.94;100.00
39301;BME280;25019;42.626;23.380;2022-12-18T06:55:51;95592.16;;;2.99;100.00
39301;BME280;25019;42.626;23.380;2022-12-18T06:58:17;95591.81;;;3.02;100.00
39301;BME280;25019;42.626;23.380;2022-12-18T07:00:43;95448.72;;;2.12;100.00
39301;BME280;25019;42.626;23.380;2022-12-18T07:03:09;95497.56;;;2.52;100.00
39301;BME280;25019;42.626;23.380;2022-12-18T07:05:34;95595.63;;;3.23;100.00
39301;BME280;25019;42.626;23.380;2022-12-18T07:08:04;95596.28;;;3.25;100.00
39301;BME280;25019;42.626;23.380;2022-12-18T07:10:29;95591.41;;;3.13;100.00
39301;BME280;25019;42.626;23.380;2022-12-18T07:12:55;95608.63;;;3.16;100.00
39301;BME280;25019;42.626;23.380;2022-12-18T07:15:21;95583.59;;;3.05;100.00
39301;BME280;25019;42.626;23.380;2022-12-18T07:17:46;95590.25;;;3.16;100.00
39301;BME280;25019;42.626;23.380;2022-12-18T07:20:12;95591.59;;;3.12;100.00
39301;BME280;25019;42.626;23.380;2022-12-18T07:22:37;95515.75;;;2.54;100.00
39301;BME280;25019;42.626;23.380;2022-12-18T07:25:03;95603.88;;;3.11;100.00
39301;BME280;25019;42.626;23.380;2022-12-18T07:27:29;95609.97;;;3.12;100.00
39301;BME280;25019;42.626;23.380;2022-12-18T07:29:55;95605.06;;;3.09;100.00
39301;BME280;25019;42.626;23.380;2022-12-18T07:32:20;95578.25;;;2.90;100.00
39301;BME280;25019;42.626;23.380;2022-12-18T07:34:46;95618.63;;;3.21;100.00
39301;BME280;25019;42.626;23.380;2022-12-18T07:37:11;95604.06;;;3.10;100.00
39301;BME280;25019;42.626;23.380;2022-12-18T07:39:37;95619.94;;;3.17;100.00
39301;BME280;25019;42.626;23.380;2022-12-18T07:42:03;95628.84;;;3.07;100.00
39301;BME280;25019;42.626;23.380;2022-12-18T07:44:47;95628.88;;;2.99;100.00
39301;BME280;25019;42.626;23.380;2022-12-18T07:47:13;95633.50;;;2.97;100.00
39301;BME280;25019;42.626;23.380;2022-12-18T07:49:38;95555.13;;;2.46;100.00
39301;BME280;25019;42.626;23.380;2022-12-18T07:52:04;95640.38;;;2.98;100.00
39301;BME280;25019;42.626;23.380;2022-12-18T07:54:29;95649.88;;;2.99;100.00
39301;BME280;25019;42.626;23.380;2022-12-18T07:56:55;95515.06;;;2.20;100.00
39301;BME280;25019;42.626;23.380;2022-12-18T07:59:21;95638.22;;;3.02;100.00
39301;BME280;25019;42.626;23.380;2022-12-18T08:01:46;95649.38;;;2.95;100.00
39301;BME280;25019;42.626;23.380;2022-12-18T08:04:12;95643.34;;;2.87;100.00
39301;BME280;25019;42.626;23.380;2022-12-18T08:06:37;95646.97;;;2.85;100.00
39301;BME280;25019;42.626;23.380;2022-12-18T08:09:03;95655.16;;;2.82;100.00
39301;BME280;25019;42.626;23.380;2022-12-18T08:11:29;95641.13;;;2.75;100.00
39301;BME280;25019;42.626;23.380;2022-12-18T08:13:55;95671.09;;;2.89;100.00
39301;BME280;25019;42.626;23.380;2022-12-18T08:16:21;95671.22;;;2.88;100.00
39301;BME280;25019;42.626;23.380;2022-12-18T08:18:47;95685.34;;;2.87;100.00
39301;BME280;25019;42.626;23.380;2022-12-18T08:21:16;95684.88;;;2.75;100.00
39301;BME280;25019;42.626;23.380;2022-12-18T08:23:43;95687.34;;;2.76;100.00
39301;BME280;25019;42.626;23.380;2022-12-18T08:26:10;95685.06;;;2.73;100.00
39301;BME280;25019;42.626;23.380;2022-12-18T08:28:36;95686.19;;;2.79;100.00
39301;BME280;25019;42.626;23.380;2022-12-18T08:31:01;95690.97;;;2.75;100.00
39301;BME280;25019;42.626;23.380;2022-12-18T08:33:27;95702.72;;;2.79;100.00
39301;BME280;25019;42.626;23.380;2022-12-18T08:35:53;95687.34;;;2.68;100.00
39301;BME280;25019;42.626;23.380;2022-12-18T08:38:19;95679.63;;;2.75;100.00
39301;BME280;25019;42.626;23.380;2022-12-18T08:40:44;95694.72;;;2.81;100.00
39301;BME280;25019;42.626;23.380;2022-12-18T08:43:10;95660.81;;;2.63;100.00
39301;BME280;25019;42.626;23.380;2022-12-18T08:45:54;95697.31;;;2.89;100.00
39301;BME280;25019;42.626;23.380;2022-12-18T08:48:20;95676.84;;;2.76;100.00
39301;BME280;25019;42.626;23.380;2022-12-18T08:50:59;95697.63;;;2.94;100.00
39301;BME280;25019;42.626;23.380;2022-12-18T08:53:25;95689.94;;;2.84;100.00
39301;BME280;25019;42.626;23.380;2022-12-18T08:55:51;95693.03;;;2.96;100.00
39301;BME280;25019;42.626;23.380;2022-12-18T08:58:18;95699.91;;;2.97;100.00
39301;BME280;25019;42.626;23.380;2022-12-18T09:00:44;95696.63;;;2.95;100.00
39301;BME280;25019;42.626;23.380;2022-12-18T09:03:17;95703.38;;;2.90;100.00
39301;BME280;25019;42.626;23.380;2022-12-18T09:05:45;95699.91;;;2.97;100.00
39301;BME280;25019;42.626;23.380;2022-12-18T09:08:11;95698.56;;;3.18;100.00
39301;BME280;25019;42.626;23.380;2022-12-18T09:10:47;95698.13;;;3.38;100.00
39301;BME280;25019;42.626;23.380;2022-12-18T09:13:14;95687.72;;;3.53;100.00
39301;BME280;25019;42.626;23.380;2022-12-18T09:15:42;95698.19;;;3.61;100.00
39301;BME280;25019;42.626;23.380;2022-12-18T09:18:09;95628.59;;;3.25;100.00
39301;BME280;25019;42.626;23.380;2022-12-18T09:20:36;95688.56;;;3.77;100.00
39301;BME280;25019;42.626;23.380;2022-12-18T09:23:02;95659.22;;;3.73;100.00
39301;BME280;25019;42.626;23.380;2022-12-18T09:25:29;95690.94;;;3.95;100.00
39301;BME280;25019;42.626;23.380;2022-12-18T09:27:59;95685.41;;;3.81;100.00
39301;BME280;25019;42.626;23.380;2022-12-18T09:30:26;95698.47;;;3.98;100.00
39301;BME280;25019;42.626;23.380;2022-12-18T09:32:53;95682.34;;;4.01;100.00
39301;BME280;25019;42.626;23.380;2022-12-18T09:35:18;95694.47;;;4.25;100.00
39301;BME280;25019;42.626;23.380;2022-12-18T09:37:44;95700.97;;;4.38;100.00
39301;BME280;25019;42.626;23.380;2022-12-18T09:40:22;95697.25;;;4.47;100.00
39301;BME280;25019;42.626;23.380;2022-12-18T09:42:55;95694.09;;;4.52;100.00
39301;BME280;25019;42.626;23.380;2022-12-18T09:45:23;95566.84;;;3.61;100.00
39301;BME280;25019;42.626;23.380;2022-12-18T09:47:51;95691.97;;;4.32;100.00
39301;BME280;25019;42.626;23.380;2022-12-18T09:50:32;95697.09;;;4.25;100.00
39301;BME280;25019;42.626;23.380;2022-12-18T09:53:04;95694.97;;;4.29;100.00
39301;BME280;25019;42.626;23.380;2022-12-18T09:55:36;95619.72;;;4.04;100.00
39301;BME280;25019;42.626;23.380;2022-12-18T09:58:06;95686.06;;;4.30;100.00
39301;BME280;25019;42.626;23.380;2022-12-18T10:00:37;95675.16;;;4.18;100.00
39301;BME280;25019;42.626;23.380;2022-12-18T10:03:09;95699.69;;;4.33;100.00
39301;BME280;25019;42.626;23.380;2022-12-18T10:08:24;95591.09;;;3.40;100.00
39301;BME280;25019;42.626;23.380;2022-12-18T10:10:57;95686.66;;;4.17;100.00
39301;BME280;25019;42.626;23.380;2022-12-18T10:13:33;95701.03;;;4.06;100.00
39301;BME280;25019;42.626;23.380;2022-12-18T10:16:17;95627.31;;;3.53;100.00
39301;BME280;25019;42.626;23.380;2022-12-18T10:19:11;95700.16;;;3.90;100.00
39301;BME280;25019;42.626;23.380;2022-12-18T10:24:42;95707.25;;;3.50;100.00
39301;BME280;25019;42.626;23.380;2022-12-18T10:27:23;95685.22;;;3.28;100.00
39301;BME280;25019;42.626;23.380;2022-12-18T10:29:49;95697.34;;;3.29;100.00
39301;BME280;25019;42.626;23.380;2022-12-18T10:32:21;95693.09;;;3.28;100.00
39301;BME280;25019;42.626;23.380;2022-12-18T10:34:48;95699.59;;;3.40;100.00
39301;BME280;25019;42.626;23.380;2022-12-18T10:37:21;95696.94;;;3.49;100.00
39301;BME280;25019;42.626;23.380;2022-12-18T10:42:32;95696.25;;;3.55;100.00
39301;BME280;25019;42.626;23.380;2022-12-18T10:45:24;95700.97;;;3.59;100.00
39301;BME280;25019;42.626;23.380;2022-12-18T10:47:50;95686.69;;;3.62;100.00
39301;BME280;25019;42.626;23.380;2022-12-18T10:50:34;95687.84;;;3.59;100.00
39301;BME280;25019;42.626;23.380;2022-12-18T10:53:04;95688.31;;;3.63;100.00
39301;BME280;25019;42.626;23.380;2022-12-18T10:55:38;95693.88;;;3.68;100.00
39301;BME280;25019;42.626;23.380;2022-12-18T11:03:37;95683.78;;;3.80;100.00
39301;BME280;25019;42.626;23.380;2022-12-18T11:06:23;95641.16;;;3.38;100.00
39301;BME280;25019;42.626;23.380;2022-12-18T11:11:28;95692.78;;;3.54;100.00
39301;BME280;25019;42.626;23.380;2022-12-18T11:14:05;95691.03;;;3.47;100.00
39301;BME280;25019;42.626;23.380;2022-12-18T11:16:44;95693.03;;;3.36;100.00
39301;BME280;25019;42.626;23.380;2022-12-18T11:19:40;95692.22;;;3.36;100.00
39301;BME280;25019;42.626;23.380;2022-12-18T11:22:31;95691.94;;;3.22;100.00
39301;BME280;25019;42.626;23.380;2022-12-18T11:25:04;95694.09;;;3.27;100.00
39301;BME280;25019;42.626;23.380;2022-12-18T11:27:31;95687.31;;;3.33;100.00
39301;BME280;25019;42.626;23.380;2022-12-18T11:32:43;95625.44;;;2.98;100.00
39301;BME280;25019;42.626;23.380;2022-12-18T11:35:57;95692.22;;;3.36;100.00
39301;BME280;25019;42.626;23.380;2022-12-18T11:40:40;95696.19;;;3.63;100.00
39301;BME280;25019;42.626;23.380;2022-12-18T11:43:21;95690.44;;;3.68;100.00
39301;BME280;25019;42.626;23.380;2022-12-18T11:45:57;95705.91;;;3.63;100.00
39301;BME280;25019;42.626;23.380;2022-12-18T11:48:28;95701.44;;;3.63;100.00
39301;BME280;25019;42.626;23.380;2022-12-18T11:50:58;95705.22;;;3.69;100.00
39301;BME280;25019;42.626;23.380;2022-12-18T11:53:26;95702.75;;;3.67;100.00
39301;BME280;25019;42.626;23.380;2022-12-18T12:26:27;95716.19;;;3.72;100.00
39301;BME280;25019;42.626;23.380;2022-12-18T12:39:54;95725.56;;;3.98;100.00
39301;BME280;25019;42.626;23.380;2022-12-18T12:42:34;95709.66;;;3.92;100.00
39301;BME280;25019;42.626;23.380;2022-12-18T12:48:19;95659.53;;;3.38;100.00
39301;BME280;25019;42.626;23.380;2022-12-18T12:50:47;95717.78;;;3.82;100.00
39301;BME280;25019;42.626;23.380;2022-12-18T12:53:23;95651.06;;;3.59;100.00
39301;BME280;25019;42.626;23.380;2022-12-18T12:55:52;95715.88;;;3.99;100.00
39301;BME280;25019;42.626;23.380;2022-12-18T12:58:26;95699.72;;;3.79;100.00
39301;BME280;25019;42.626;23.380;2022-12-18T13:06:45;95732.63;;;3.98;100.00
39301;BME280;25019;42.626;23.380;2022-12-18T13:09:13;95741.41;;;3.90;100.00
39301;BME280;25019;42.626;23.380;2022-12-18T13:14:41;95746.34;;;3.85;100.00
39301;BME280;25019;42.626;23.380;2022-12-18T13:20:08;95732.56;;;3.83;100.00
39301;BME280;25019;42.626;23.380;2022-12-18T13:22:37;95724.91;;;3.73;100.00
39301;BME280;25019;42.626;23.380;2022-12-18T13:25:28;95749.81;;;3.77;100.00
39301;BME280;25019;42.626;23.380;2022-12-18T13:40:58;95749.78;;;3.85;100.00
39301;BME280;25019;42.626;23.380;2022-12-18T13:43:29;95758.50;;;3.86;100.00
39301;BME280;25019;42.626;23.380;2022-12-18T13:46:17;95758.53;;;3.78;100.00
39301;BME280;25019;42.626;23.380;2022-12-18T13:49:26;95769.16;;;3.84;100.00
39301;BME280;25019;42.626;23.380;2022-12-18T13:51:54;95774.06;;;3.96;100.00
39301;BME280;25019;42.626;23.380;2022-12-18T13:54:40;95776.47;;;4.05;100.00
39301;BME280;25019;42.626;23.380;2022-12-18T13:57:28;95785.53;;;4.03;100.00
39301;BME280;25019;42.626;23.380;2022-12-18T13:59:54;95788.84;;;3.97;100.00
39301;BME280;25019;42.626;23.380;2022-12-18T14:02:25;95787.66;;;3.99;100.00
39301;BME280;25019;42.626;23.380;2022-12-18T14:04:52;95723.59;;;3.69;100.00
39301;BME280;25019;42.626;23.380;2022-12-18T14:07:23;95789.94;;;4.02;100.00
39301;BME280;25019;42.626;23.380;2022-12-18T14:09:55;95730.31;;;3.71;100.00
39301;BME280;25019;42.626;23.380;2022-12-18T14:12:33;95785.81;;;4.08;100.00
39301;BME280;25019;42.626;23.380;2022-12-18T14:15:44;95787.97;;;4.04;100.00
39301;BME280;25019;42.626;23.380;2022-12-18T14:18:26;95802.44;;;4.00;100.00
39301;BME280;25019;42.626;23.380;2022-12-18T14:20:57;95797.53;;;3.97;100.00
39301;BME280;25019;42.626;23.380;2022-12-18T14:23:39;95797.41;;;3.90;100.00
39301;BME280;25019;42.626;23.380;2022-12-18T14:26:30;95797.31;;;3.75;100.00
39301;BME280;25019;42.626;23.380;2022-12-18T14:29:14;95796.66;;;3.73;100.00
39301;BME280;25019;42.626;23.380;2022-12-18T14:31:43;95784.91;;;3.61;100.00
39301;BME280;25019;42.626;23.380;2022-12-18T14:34:17;95799.81;;;3.60;100.00
39301;BME280;25019;42.626;23.380;2022-12-18T14:36:53;95797.66;;;3.64;100.00
39301;BME280;25019;42.626;23.380;2022-12-18T14:39:20;95738.09;;;3.08;100.00
39301;BME280;25019;42.626;23.380;2022-12-18T14:41:48;95789.88;;;3.39;100.00
39301;BME280;25019;42.626;23.380;2022-12-18T14:44:14;95802.00;;;3.49;100.00
39301;BME280;25019;42.626;23.380;2022-12-18T14:46:44;95803.47;;;3.51;100.00
39301;BME280;25019;42.626;23.380;2022-12-18T14:49:29;95808.69;;;3.59;100.00
39301;BME280;25019;42.626;23.380;2022-12-18T14:52:28;95807.69;;;3.69;100.00
39301;BME280;25019;42.626;23.380;2022-12-18T14:54:56;95795.97;;;3.80;100.00
39301;BME280;25019;42.626;23.380;2022-12-18T14:57:24;95804.63;;;3.88;100.00
39301;BME280;25019;42.626;23.380;2022-12-18T14:59:50;95809.09;;;3.88;100.00
39301;BME280;25019;42.626;23.380;2022-12-18T15:02:27;95808.38;;;3.94;100.00
39301;BME280;25019;42.626;23.380;2022-12-18T15:05:24;95813.19;;;3.90;100.00
39301;BME280;25019;42.626;23.380;2022-12-18T15:07:52;95814.84;;;3.83;100.00